Mobridge Municipal Airport
KMBG : now visible

Airfield :











YOU CAN JOIN US ON...

 
LOGIN :

Register | Disclaimer

   EN    FR    IT 

 









Legend :    VFR   Marginal VFR   IFR   Intensive IFR   Very Intensive IFR
Visi :
Ceiling :
>= 8 km
>= 3000ft
5 to 8 km
1000 to 3000 ft
1500m to 5 km
500 to 1000 ft
800 to 1500m
200 to 500 ft
< 800m
< 200 ft
Symbols :   Thunderstorms  Fog  Heavy snow  Heavy precipitations  Wind > 20 kt






- Airport Elevation : 1716 ft


KMBG - Mobridge Municipal

CURRENT METAR :
  • 220452Z AUTO 36005KT 10SM SCT120 01/M04 A2969 RMK AO2 SLP071 T00061039

EXPIRED METARs :
  • 220352Z AUTO 01004KT 10SM CLR 01/M03 A2970 RMK AO2 SLP074 T00061028
  • 220252Z AUTO 15005KT 10SM CLR M01/M03 A2970 RMK AO2 SLP079 T10061033 55000

TAF KMBG
Valid from the 22 at 00:00 until the 23 at 00:00 UTC


212339Z 2200/2224 VRB03KT P6SM BKN100
FM220800 31005KT P6SM BKN090



MET'MAP, your aeronautical weather chart ! - Copyright ORBIFLY December 2007 - Disclaimer

ORBIFLY MET'MAP TEAM :

Programming & Development : Alexandra Zaïnal
Concept & original design : Baudouin d'Aumeries
Assistance for programming : Marc-Olivier Méhu
Technical & hardware support : Manuel Goepfert

Contact : metmap@orbifly.com




SOURCES & CREDITS :

   NOAA       Earth
Advisory